createdAt,value
2023-05-03T00:01:27.832Z,7.60
2023-05-03T00:03:55.857Z,7.60
2023-05-03T00:06:24.198Z,7.50
2023-05-03T00:08:52.330Z,7.50
2023-05-03T00:11:21.095Z,7.30
2023-05-03T00:13:49.129Z,7.30
2023-05-03T00:16:17.517Z,7.30
2023-05-03T00:18:48.441Z,7.20
2023-05-03T00:21:17.707Z,7.30
2023-05-03T00:23:45.737Z,7.20
2023-05-03T00:26:14.186Z,7.20
2023-05-03T00:28:43.129Z,7.20
2023-05-03T00:31:12.155Z,7.20
2023-05-03T00:33:40.770Z,7.10
2023-05-03T00:36:12.432Z,7.10
2023-05-03T00:38:40.866Z,7.00
2023-05-03T00:41:10.316Z,7.00
2023-05-03T00:43:39.245Z,7.00
2023-05-03T00:46:16.854Z,6.90
2023-05-03T00:48:46.734Z,6.80
2023-05-03T00:51:16.609Z,6.70
2023-05-03T00:53:45.126Z,6.60
2023-05-03T00:56:16.257Z,6.50
2023-05-03T00:58:45.046Z,6.40
2023-05-03T01:01:13.228Z,6.40
2023-05-03T01:03:43.107Z,6.30
2023-05-03T01:06:14.797Z,6.20
2023-05-03T01:08:48.206Z,6.20
2023-05-03T01:11:20.822Z,6.10
2023-05-03T01:13:51.823Z,6.10
2023-05-03T01:16:22.675Z,6.10
2023-05-03T01:18:52.198Z,6.00
2023-05-03T01:21:22.824Z,5.90
2023-05-03T01:23:56.415Z,5.90
2023-05-03T01:26:26.288Z,5.90
2023-05-03T01:28:54.715Z,5.80
2023-05-03T01:31:24.825Z,5.80
2023-05-03T01:34:01.966Z,5.80
2023-05-03T01:36:32.559Z,5.80
2023-05-03T01:39:05.206Z,5.70
2023-05-03T01:41:35.476Z,5.70
2023-05-03T01:44:04.190Z,5.70
2023-05-03T01:46:32.421Z,5.70
2023-05-03T01:49:01.021Z,5.70
2023-05-03T01:51:31.181Z,5.80
2023-05-03T01:53:59.619Z,5.90
2023-05-03T01:56:27.795Z,6.00
2023-05-03T01:58:57.690Z,6.10
2023-05-03T02:01:25.762Z,6.10
2023-05-03T02:03:54.223Z,6.20
2023-05-03T02:06:22.289Z,6.30
2023-05-03T02:08:50.797Z,6.30
2023-05-03T02:11:18.795Z,6.30
2023-05-03T02:13:49.436Z,6.20
2023-05-03T02:16:19.987Z,6.20
2023-05-03T02:18:48.540Z,6.20
2023-05-03T02:21:16.516Z,6.10
2023-05-03T02:23:44.899Z,6.10
2023-05-03T02:26:12.889Z,6.00
2023-05-03T02:28:41.199Z,6.00
2023-05-03T02:31:09.244Z,6.00
2023-05-03T02:33:40.084Z,6.00
2023-05-03T02:36:08.547Z,6.00
2023-05-03T02:38:37.009Z,6.00
2023-05-03T02:41:05.636Z,5.90
2023-05-03T02:43:33.987Z,5.90
2023-05-03T02:46:02.425Z,5.90
2023-05-03T02:48:30.842Z,5.90
2023-05-03T02:51:00.711Z,5.90
2023-05-03T02:53:29.275Z,5.90
2023-05-03T02:56:00.987Z,5.90
2023-05-03T02:58:29.925Z,5.90
2023-05-03T03:00:59.495Z,5.90
2023-05-03T03:03:31.041Z,5.90
2023-05-03T03:06:00.700Z,5.80
2023-05-03T03:08:30.332Z,5.90
2023-05-03T03:11:01.982Z,5.90
2023-05-03T03:13:30.526Z,5.90
2023-05-03T03:15:59.780Z,5.80
2023-05-03T03:18:28.690Z,5.90
2023-05-03T03:20:56.726Z,5.90
2023-05-03T03:23:26.186Z,5.80
2023-05-03T03:25:54.702Z,5.80
2023-05-03T03:28:22.680Z,5.70
2023-05-03T03:30:51.581Z,5.70
2023-05-03T03:33:25.427Z,5.60
2023-05-03T03:35:57.722Z,5.60
2023-05-03T03:38:32.448Z,5.60
2023-05-03T03:41:04.960Z,5.60
2023-05-03T03:43:33.354Z,5.60
2023-05-03T03:46:04.493Z,5.60
2023-05-03T03:48:32.692Z,5.60
2023-05-03T03:51:01.538Z,5.60
2023-05-03T03:53:38.309Z,5.60
2023-05-03T03:56:08.138Z,5.60
2023-05-03T03:58:36.276Z,5.60
2023-05-03T04:01:07.109Z,5.60
2023-05-03T04:03:35.318Z,5.50
2023-05-03T04:06:03.619Z,5.60
2023-05-03T04:08:32.002Z,5.60
2023-05-03T04:11:03.113Z,5.60
2023-05-03T04:13:36.918Z,5.70
2023-05-03T04:16:06.389Z,5.70
2023-05-03T04:18:35.708Z,5.80
2023-05-03T04:21:04.118Z,5.80
2023-05-03T04:23:32.727Z,5.80
2023-05-03T04:26:04.194Z,5.90
2023-05-03T04:28:35.667Z,5.90
2023-05-03T04:31:04.277Z,5.90
2023-05-03T04:33:34.014Z,6.00
2023-05-03T04:36:05.432Z,6.00
2023-05-03T04:38:35.215Z,6.10
2023-05-03T04:41:07.314Z,6.20
2023-05-03T04:43:35.384Z,6.20
2023-05-03T04:46:05.238Z,6.40
2023-05-03T04:48:33.275Z,6.40
2023-05-03T04:51:02.020Z,6.50
2023-05-03T04:53:31.216Z,6.50
2023-05-03T04:56:07.910Z,6.50
2023-05-03T04:58:39.096Z,6.40
2023-05-03T05:01:08.742Z,6.40
2023-05-03T05:03:36.931Z,6.30
2023-05-03T05:06:12.932Z,6.30
2023-05-03T05:08:42.888Z,6.20
2023-05-03T05:11:15.730Z,6.20
2023-05-03T05:13:43.820Z,6.10
2023-05-03T05:16:13.671Z,6.30
2023-05-03T05:18:45.312Z,6.60
2023-05-03T05:21:15.097Z,6.90
2023-05-03T05:23:43.731Z,7.10
2023-05-03T05:26:12.492Z,7.50
2023-05-03T05:28:42.948Z,7.80
2023-05-03T05:31:12.014Z,8.10
2023-05-03T05:33:40.654Z,8.30
2023-05-03T05:36:09.762Z,8.50
2023-05-03T05:38:38.454Z,8.70
2023-05-03T05:41:07.321Z,8.80
2023-05-03T05:43:35.982Z,9.00
2023-05-03T05:46:06.219Z,9.10
2023-05-03T05:48:34.621Z,9.30
2023-05-03T05:51:04.247Z,9.50
2023-05-03T05:53:32.266Z,9.50
2023-05-03T05:56:03.408Z,9.50
2023-05-03T05:58:33.726Z,9.70
2023-05-03T06:01:04.157Z,9.90
2023-05-03T06:03:36.852Z,9.90
2023-05-03T06:06:09.159Z,10.10
2023-05-03T06:08:38.016Z,10.60
2023-05-03T06:11:07.269Z,11.70
2023-05-03T06:13:38.537Z,12.80
2023-05-03T06:16:08.467Z,13.80
2023-05-03T06:18:38.967Z,14.50
2023-05-03T06:21:08.614Z,15.20
2023-05-03T06:23:37.825Z,15.60
2023-05-03T06:26:06.380Z,15.70
2023-05-03T06:28:34.764Z,16.30
2023-05-03T06:31:02.981Z,16.50
2023-05-03T06:33:33.238Z,16.80
2023-05-03T06:36:03.001Z,17.00
2023-05-03T06:38:31.018Z,17.00
2023-05-03T06:40:59.357Z,17.10
2023-05-03T06:43:27.351Z,17.40
2023-05-03T06:46:03.991Z,17.90
2023-05-03T06:48:32.125Z,18.40
2023-05-03T06:51:02.418Z,18.60
2023-05-03T06:53:30.731Z,18.60
2023-05-03T06:55:59.094Z,18.70
2023-05-03T06:58:27.105Z,19.00
2023-05-03T07:00:55.914Z,19.00
2023-05-03T07:03:24.890Z,19.20
2023-05-03T07:05:53.782Z,19.50
2023-05-03T07:08:23.177Z,19.60
2023-05-03T07:10:51.977Z,19.90
2023-05-03T07:13:20.054Z,19.60
2023-05-03T07:15:48.600Z,19.60
2023-05-03T07:18:16.648Z,20.00
2023-05-03T07:20:45.435Z,19.90
2023-05-03T07:23:13.416Z,20.10
2023-05-03T07:25:43.210Z,20.40
2023-05-03T07:28:11.189Z,20.70
2023-05-03T07:30:39.902Z,20.70
2023-05-03T07:33:08.295Z,20.80
2023-05-03T07:35:37.204Z,20.70
2023-05-03T07:38:05.208Z,20.70
2023-05-03T07:40:34.117Z,20.80
2023-05-03T07:43:03.504Z,20.90
2023-05-03T07:45:31.651Z,20.80
2023-05-03T07:47:59.796Z,20.20
2023-05-03T07:50:28.354Z,20.00
2023-05-03T07:52:56.623Z,19.90
2023-05-03T07:55:25.447Z,20.10
2023-05-03T07:57:58.475Z,20.60
2023-05-03T08:00:28.458Z,20.90
2023-05-03T08:02:57.052Z,21.00
2023-05-03T08:05:25.328Z,21.10
2023-05-03T08:07:53.714Z,21.50
2023-05-03T08:10:22.553Z,21.50
2023-05-03T08:12:50.940Z,21.20
2023-05-03T08:15:19.325Z,21.20
2023-05-03T08:17:48.703Z,21.20
2023-05-03T08:20:17.272Z,20.70
2023-05-03T08:22:46.514Z,20.50
2023-05-03T08:25:16.963Z,20.50
2023-05-03T08:27:45.526Z,20.60
2023-05-03T08:30:14.106Z,20.50
2023-05-03T08:32:42.472Z,20.90
2023-05-03T08:35:14.056Z,20.50
2023-05-03T08:37:42.167Z,20.10
2023-05-03T08:40:12.450Z,20.00
2023-05-03T08:42:41.492Z,20.40
2023-05-03T08:45:11.793Z,20.50
2023-05-03T08:47:41.220Z,20.60
2023-05-03T08:50:10.110Z,20.20
2023-05-03T08:52:40.794Z,20.10
2023-05-03T08:55:09.611Z,19.90
2023-05-03T08:57:37.842Z,20.20
2023-05-03T09:00:10.979Z,20.20
2023-05-03T09:02:40.146Z,19.50
2023-05-03T09:05:24.020Z,19.70
2023-05-03T09:08:03.642Z,19.60
2023-05-03T09:10:32.514Z,19.50
2023-05-03T09:13:01.202Z,19.80
2023-05-03T09:15:30.965Z,20.00
2023-05-03T09:18:12.503Z,20.70
2023-05-03T09:20:41.964Z,20.90
2023-05-03T09:23:11.576Z,20.90
2023-05-03T09:25:44.005Z,20.50
2023-05-03T09:28:12.055Z,20.30
2023-05-03T09:30:40.738Z,20.70
2023-05-03T09:33:09.106Z,21.20
2023-05-03T09:35:37.761Z,21.40
2023-05-03T09:38:06.237Z,20.80
2023-05-03T09:40:37.393Z,20.50
2023-05-03T09:43:12.317Z,20.60
2023-05-03T09:45:41.037Z,20.50
2023-05-03T09:48:09.981Z,20.80
2023-05-03T09:50:38.900Z,21.00
2023-05-03T09:53:08.375Z,21.00
2023-05-03T09:55:39.556Z,21.00
2023-05-03T09:58:08.089Z,21.10
2023-05-03T10:00:37.929Z,21.30
2023-05-03T10:03:08.349Z,20.40
2023-05-03T10:05:40.129Z,20.00
2023-05-03T10:08:08.434Z,20.20
2023-05-03T10:10:36.832Z,20.10
2023-05-03T10:13:06.642Z,20.00
2023-05-03T10:15:37.530Z,20.20
2023-05-03T10:18:07.834Z,20.60
2023-05-03T10:20:40.576Z,20.90
2023-05-03T10:23:09.049Z,21.30
2023-05-03T10:25:39.396Z,21.10
2023-05-03T10:28:09.549Z,21.00
2023-05-03T10:30:39.122Z,21.10
2023-05-03T10:33:22.167Z,21.20
2023-05-03T10:35:53.193Z,21.00
2023-05-03T10:38:21.947Z,20.60
2023-05-03T10:40:50.787Z,20.40
2023-05-03T10:43:37.362Z,20.20
2023-05-03T10:46:08.144Z,20.20
2023-05-03T10:51:37.621Z,20.40
2023-05-03T10:54:05.733Z,20.70
2023-05-03T10:56:34.063Z,20.50
2023-05-03T10:59:02.088Z,20.60
2023-05-03T11:01:32.481Z,20.60
2023-05-03T11:04:03.894Z,21.00
2023-05-03T11:06:34.041Z,21.10
2023-05-03T11:09:03.921Z,21.70
2023-05-03T11:11:32.666Z,21.70
2023-05-03T11:14:00.822Z,21.60
2023-05-03T11:16:29.750Z,22.20
2023-05-03T11:19:00.269Z,22.40
2023-05-03T11:21:29.118Z,22.10
2023-05-03T11:23:59.529Z,21.60
2023-05-03T11:26:27.985Z,21.40
2023-05-03T11:28:55.999Z,21.40
2023-05-03T11:31:24.805Z,21.30
2023-05-03T11:33:52.847Z,21.30
2023-05-03T11:36:22.979Z,20.80
2023-05-03T11:38:50.987Z,20.40
2023-05-03T11:41:19.595Z,20.60
2023-05-03T11:43:54.986Z,20.40
2023-05-03T11:46:27.806Z,19.50
2023-05-03T11:48:56.208Z,19.30
2023-05-03T11:51:27.555Z,19.30
2023-05-03T11:53:55.562Z,19.00
2023-05-03T11:56:24.261Z,19.20
2023-05-03T11:58:53.270Z,19.40
2023-05-03T12:01:23.362Z,19.10
2023-05-03T12:03:54.649Z,18.60
2023-05-03T12:06:24.076Z,18.90
2023-05-03T12:08:54.866Z,19.20
2023-05-03T12:11:27.396Z,19.40
2023-05-03T12:14:00.145Z,19.40
2023-05-03T12:16:29.126Z,19.60
2023-05-03T12:19:02.714Z,19.70
2023-05-03T12:21:54.303Z,19.80
2023-05-03T12:24:34.221Z,19.80
2023-05-03T12:27:03.776Z,19.90
2023-05-03T12:29:35.255Z,20.60
2023-05-03T12:32:05.002Z,20.80
2023-05-03T12:34:36.058Z,20.90
2023-05-03T12:37:06.356Z,20.90
2023-05-03T12:39:39.563Z,20.80
2023-05-03T12:42:09.697Z,20.90
2023-05-03T12:44:42.420Z,21.00
2023-05-03T12:47:16.144Z,21.60
2023-05-03T12:49:52.254Z,21.90
2023-05-03T12:52:37.277Z,21.50
2023-05-03T12:55:11.242Z,21.00
2023-05-03T12:57:42.035Z,21.20
2023-05-03T13:00:15.034Z,20.80
2023-05-03T13:05:30.722Z,19.90
2023-05-03T13:08:09.038Z,20.00
2023-05-03T13:10:41.092Z,20.50
2023-05-03T13:13:11.309Z,20.80
2023-05-03T13:15:39.783Z,21.20
2023-05-03T13:18:08.221Z,21.50
2023-05-03T13:20:37.023Z,21.40
2023-05-03T13:23:05.428Z,21.60
2023-05-03T13:25:33.379Z,21.60
2023-05-03T13:28:02.812Z,21.60
2023-05-03T13:30:30.875Z,21.60
2023-05-03T13:32:59.394Z,21.90
2023-05-03T13:35:27.341Z,21.80
2023-05-03T13:37:55.841Z,21.60
2023-05-03T13:40:24.672Z,21.20
2023-05-03T13:42:52.779Z,21.50
2023-05-03T13:45:22.253Z,21.80
2023-05-03T13:48:15.988Z,21.90
2023-05-03T13:50:38.737Z,22.00
2023-05-03T13:53:09.631Z,21.10
2023-05-03T13:55:37.628Z,20.10
2023-05-03T13:58:05.966Z,19.50
2023-05-03T14:00:35.376Z,19.00
2023-05-03T14:03:04.335Z,18.80
2023-05-03T14:05:32.441Z,18.40
2023-05-03T14:08:00.944Z,17.80
2023-05-03T14:10:28.950Z,17.60
2023-05-03T14:12:58.546Z,17.50
2023-05-03T14:15:26.546Z,17.70
2023-05-03T14:17:59.853Z,17.60
2023-05-03T14:20:30.215Z,17.50
2023-05-03T14:22:58.800Z,16.90
2023-05-03T14:25:27.277Z,16.70
2023-05-03T14:27:55.805Z,16.80
2023-05-03T14:30:23.856Z,17.00
2023-05-03T14:32:56.853Z,16.70
2023-05-03T14:35:26.895Z,16.50
2023-05-03T14:37:55.759Z,16.60
2023-05-03T14:40:23.915Z,16.50
2023-05-03T14:42:52.310Z,16.60
2023-05-03T14:45:20.335Z,16.40
2023-05-03T14:47:49.140Z,16.20
2023-05-03T14:50:17.541Z,16.20
2023-05-03T14:52:47.632Z,16.20
2023-05-03T14:55:16.365Z,16.20
2023-05-03T14:57:44.804Z,16.20
2023-05-03T15:00:15.121Z,16.30
2023-05-03T15:02:43.844Z,16.50
2023-05-03T15:05:12.794Z,16.60
2023-05-03T15:07:41.635Z,16.40
2023-05-03T15:10:11.487Z,16.40
2023-05-03T15:12:40.482Z,16.30
2023-05-03T15:15:09.633Z,16.10
2023-05-03T15:17:37.938Z,16.00
2023-05-03T15:20:06.956Z,16.00
2023-05-03T15:22:36.878Z,15.70
2023-05-03T15:25:05.874Z,15.40
2023-05-03T15:27:35.505Z,15.30
2023-05-03T15:30:04.274Z,15.20
2023-05-03T15:32:32.896Z,15.20
2023-05-03T15:35:00.896Z,15.10
2023-05-03T15:37:36.208Z,14.90
2023-05-03T15:40:05.583Z,15.00
2023-05-03T15:42:35.648Z,15.10
2023-05-03T15:45:03.707Z,15.10
2023-05-03T15:47:32.105Z,15.00
2023-05-03T15:50:00.238Z,14.90
2023-05-03T15:52:28.831Z,14.90
2023-05-03T15:54:56.864Z,14.90
2023-05-03T15:57:25.358Z,14.80
2023-05-03T15:59:55.355Z,14.80
2023-05-03T16:02:28.815Z,14.90
2023-05-03T16:04:57.087Z,14.80
2023-05-03T16:07:27.106Z,14.80
2023-05-03T16:09:55.136Z,14.80
2023-05-03T16:12:23.127Z,14.80
2023-05-03T16:14:51.291Z,14.80
2023-05-03T16:17:22.062Z,14.70
2023-05-03T16:19:50.082Z,14.60
2023-05-03T16:22:18.845Z,14.60
2023-05-03T16:24:47.470Z,14.70
2023-05-03T16:27:15.933Z,14.60
2023-05-03T16:29:43.901Z,14.60
2023-05-03T16:32:13.003Z,14.70
2023-05-03T16:34:42.391Z,14.70
2023-05-03T16:37:10.844Z,14.60
2023-05-03T16:39:38.894Z,14.60
2023-05-03T16:42:07.527Z,14.60
2023-05-03T16:44:35.561Z,14.60
2023-05-03T16:47:04.935Z,14.50
2023-05-03T16:49:33.952Z,14.50
2023-05-03T16:52:03.850Z,14.40
2023-05-03T16:54:32.325Z,14.30
2023-05-03T16:57:00.697Z,14.30
2023-05-03T16:59:29.541Z,14.30
2023-05-03T17:01:57.924Z,14.30
2023-05-03T17:04:26.403Z,14.20
2023-05-03T17:06:56.187Z,14.20
2023-05-03T17:09:25.980Z,14.20
2023-05-03T17:11:55.070Z,14.10
2023-05-03T17:14:23.167Z,14.10
2023-05-03T17:16:51.502Z,14.00
2023-05-03T17:19:19.842Z,14.00
2023-05-03T17:21:48.109Z,14.00
2023-05-03T17:24:16.463Z,13.90
2023-05-03T17:26:46.341Z,13.90
2023-05-03T17:29:15.013Z,13.80
2023-05-03T17:31:43.429Z,13.70
2023-05-03T17:34:11.669Z,13.70
2023-05-03T17:36:39.947Z,13.80
2023-05-03T17:39:08.285Z,13.70
2023-05-03T17:41:36.733Z,13.60
2023-05-03T17:44:06.148Z,13.60
2023-05-03T17:46:35.556Z,13.60
2023-05-03T17:49:03.735Z,13.60
2023-05-03T17:51:32.053Z,13.60
2023-05-03T17:54:00.244Z,13.60
2023-05-03T17:56:28.527Z,13.50
2023-05-03T17:58:56.953Z,13.40
2023-05-03T18:01:27.954Z,13.30
2023-05-03T18:03:56.175Z,13.20
2023-05-03T18:06:24.740Z,13.20
2023-05-03T18:08:53.106Z,13.10
2023-05-03T18:11:21.461Z,12.90
2023-05-03T18:13:49.804Z,12.90
2023-05-03T18:16:18.198Z,12.90
2023-05-03T18:18:48.123Z,12.80
2023-05-03T18:21:18.630Z,12.70
2023-05-03T18:23:47.514Z,12.70
2023-05-03T18:26:15.487Z,12.70
2023-05-03T18:28:43.935Z,12.70
2023-05-03T18:31:12.599Z,12.70
2023-05-03T18:33:41.084Z,12.60
2023-05-03T18:36:12.479Z,12.60
2023-05-03T18:38:41.852Z,12.40
2023-05-03T18:41:14.022Z,12.40
2023-05-03T18:43:42.756Z,12.40
2023-05-03T18:46:11.355Z,12.30
2023-05-03T18:48:39.733Z,12.20
2023-05-03T18:51:08.253Z,12.20
2023-05-03T18:53:37.953Z,12.10
2023-05-03T18:56:06.282Z,12.00
2023-05-03T18:58:34.571Z,12.00
2023-05-03T19:01:04.723Z,12.00
2023-05-03T19:03:33.614Z,12.00
2023-05-03T19:06:03.354Z,12.00
2023-05-03T19:08:32.159Z,12.00
2023-05-03T19:11:09.358Z,12.00
2023-05-03T19:13:37.697Z,12.00
2023-05-03T19:16:06.597Z,12.00
2023-05-03T19:18:37.127Z,12.00
2023-05-03T19:21:06.303Z,11.90
2023-05-03T19:23:34.313Z,11.90
2023-05-03T19:26:02.746Z,11.80
2023-05-03T19:28:32.294Z,11.60
2023-05-03T19:31:04.221Z,11.50
2023-05-03T19:33:32.323Z,11.40
2023-05-03T19:36:06.816Z,11.30
2023-05-03T19:38:36.133Z,11.20
2023-05-03T19:41:08.264Z,11.20
2023-05-03T19:43:37.691Z,11.20
2023-05-03T19:46:06.296Z,11.10
2023-05-03T19:48:34.862Z,11.10
2023-05-03T19:51:05.197Z,11.00
2023-05-03T19:53:34.124Z,11.00
2023-05-03T19:56:02.787Z,10.90
2023-05-03T19:58:32.008Z,10.90
2023-05-03T20:01:01.741Z,10.90
2023-05-03T20:03:30.145Z,10.90
2023-05-03T20:05:58.454Z,10.90
2023-05-03T20:08:27.493Z,10.80
2023-05-03T20:10:56.415Z,10.80
2023-05-03T20:13:27.315Z,10.80
2023-05-03T20:15:55.399Z,10.70
2023-05-03T20:18:25.595Z,10.60
2023-05-03T20:20:53.766Z,10.60
2023-05-03T20:23:22.757Z,10.60
2023-05-03T20:25:50.790Z,10.60
2023-05-03T20:28:19.870Z,10.50
2023-05-03T20:30:47.915Z,10.40
2023-05-03T20:33:16.000Z,10.30
2023-05-03T20:35:45.512Z,10.20
2023-05-03T20:38:14.293Z,10.20
2023-05-03T20:40:42.311Z,10.20
2023-05-03T20:43:11.017Z,10.10
2023-05-03T20:45:55.719Z,10.00
2023-05-03T20:48:24.673Z,10.00
2023-05-03T20:50:52.785Z,9.90
2023-05-03T20:53:21.540Z,9.90
2023-05-03T20:55:55.529Z,9.80
2023-05-03T20:58:23.967Z,9.80
2023-05-03T21:00:52.331Z,9.80
2023-05-03T21:03:24.480Z,9.70
2023-05-03T21:05:52.873Z,9.70
2023-05-03T21:08:21.670Z,9.70
2023-05-03T21:10:49.683Z,9.70
2023-05-03T21:13:18.532Z,9.70
2023-05-03T21:15:46.517Z,9.80
2023-05-03T21:18:14.751Z,9.80
2023-05-03T21:20:44.388Z,9.80
2023-05-03T21:23:12.521Z,9.80
2023-05-03T21:25:40.537Z,9.80
2023-05-03T21:28:09.376Z,9.70
2023-05-03T21:30:37.433Z,9.70
2023-05-03T21:33:06.140Z,9.60
2023-05-03T21:35:34.176Z,9.60
2023-05-03T21:38:04.669Z,9.50
2023-05-03T21:40:33.145Z,9.40
2023-05-03T21:43:01.953Z,9.30
2023-05-03T21:45:29.968Z,9.30
2023-05-03T21:47:58.078Z,9.40
2023-05-03T21:50:26.218Z,9.30
2023-05-03T21:52:54.565Z,9.30
2023-05-03T21:55:24.107Z,9.30
2023-05-03T21:57:52.487Z,9.30
2023-05-03T22:00:20.979Z,9.30
2023-05-03T22:02:50.223Z,9.30
2023-05-03T22:05:18.383Z,9.30
2023-05-03T22:07:48.705Z,9.30
2023-05-03T22:10:16.833Z,9.30
2023-05-03T22:12:46.939Z,9.30
2023-05-03T22:15:14.958Z,9.20
2023-05-03T22:17:43.657Z,9.20
2023-05-03T22:20:12.231Z,9.10
2023-05-03T22:22:40.868Z,9.20
2023-05-03T22:25:09.244Z,9.20
2023-05-03T22:27:38.204Z,9.20
2023-05-03T22:30:09.037Z,9.20
2023-05-03T22:32:37.771Z,9.20
2023-05-03T22:35:06.390Z,9.10
2023-05-03T22:37:34.938Z,9.10
2023-05-03T22:40:03.243Z,9.00
2023-05-03T22:42:31.939Z,9.00
2023-05-03T22:44:59.938Z,9.00
2023-05-03T22:47:30.177Z,9.00
2023-05-03T22:49:58.184Z,9.10
2023-05-03T22:52:26.670Z,9.00
2023-05-03T22:54:56.032Z,9.10
2023-05-03T22:57:24.069Z,9.10
2023-05-03T22:59:52.072Z,9.00
2023-05-03T23:02:20.961Z,8.90
2023-05-03T23:04:50.370Z,8.90
2023-05-03T23:07:19.366Z,8.80
2023-05-03T23:09:47.842Z,8.80
2023-05-03T23:12:16.805Z,8.70
2023-05-03T23:14:46.107Z,8.70
2023-05-03T23:17:15.492Z,8.60
2023-05-03T23:19:43.465Z,8.60
2023-05-03T23:22:13.244Z,8.50
2023-05-03T23:24:41.421Z,8.50
2023-05-03T23:27:11.311Z,8.50
2023-05-03T23:29:39.925Z,8.40
2023-05-03T23:32:08.864Z,8.40
2023-05-03T23:34:37.826Z,8.40
2023-05-03T23:37:06.120Z,8.40
2023-05-03T23:39:35.509Z,8.40
2023-05-03T23:42:03.970Z,8.40
2023-05-03T23:44:42.923Z,8.40
2023-05-03T23:47:19.106Z,8.30
2023-05-03T23:49:47.089Z,8.30
2023-05-03T23:52:17.026Z,8.30
2023-05-03T23:54:46.402Z,8.20
2023-05-03T23:57:14.767Z,8.20
2023-05-03T23:59:43.252Z,8.10
